Time;durP1;ratioP1;P1;durP2;ratioP2;P2;SDS_P1;SDS_P2;PMS_P1;PMS_P2;Temp;Humidity;BMP_temperature;BMP_pressure;BME280_temperature;BME280_humidity;BME280_pressure;Samples;Min_cycle;Max_cycle;Signal;HPM_P1;HPM_P2
2021/05/31 00:01:39;;;;;;;7.00;4.50;;;;;;;11.29;74.02;98887.86;125768;1097;25884;-77
2021/05/31 00:04:06;;;;;;;6.35;3.10;;;;;;;11.24;73.29;98899.47;125826;1104;24396;-77
2021/05/31 00:06:58;;;;;;;5.15;3.15;;;;;;;11.20;73.32;98899.11;125752;1104;22742;-77
2021/05/31 00:09:26;;;;;;;4.55;3.30;;;;;;;11.15;73.53;98888.09;125776;1104;22844;-77
2021/05/31 00:11:53;;;;;;;5.05;3.20;;;;;;;11.14;73.31;98877.45;125820;1104;22873;-77
2021/05/31 00:14:36;;;;;;;3.80;2.40;;;;;;;11.11;73.60;98878.74;125750;1104;22919;-77
2021/05/31 00:17:04;;;;;;;3.90;2.87;;;;;;;11.11;73.35;98880.65;125827;1096;22753;-77
2021/05/31 00:19:33;;;;;;;3.45;3.15;;;;;;;11.07;73.35;98883.02;125787;1104;22758;-77
2021/05/31 00:22:01;;;;;;;5.38;2.98;;;;;;;11.07;73.51;98882.20;125829;1104;22839;-77
2021/05/31 00:24:28;;;;;;;4.80;3.20;;;;;;;11.02;73.31;98881.00;125773;1104;24418;-77
2021/05/31 00:26:56;;;;;;;4.33;2.90;;;;;;;10.99;73.32;98884.19;125815;1104;22747;-77
2021/05/31 00:29:24;;;;;;;4.10;3.15;;;;;;;10.98;73.19;98879.00;125778;1104;22774;-77
2021/05/31 00:31:54;;;;;;;5.30;2.53;;;;;;;10.96;73.08;98875.66;125777;1104;22771;-77
2021/05/31 00:34:22;;;;;;;6.00;3.20;;;;;;;10.95;73.63;98868.57;125796;1105;24390;-77
2021/05/31 00:36:50;;;;;;;7.33;3.47;;;;;;;10.92;73.56;98874.48;125828;1104;22774;-77
2021/05/31 00:39:22;;;;;;;6.90;3.60;;;;;;;10.89;73.08;98877.67;125830;1096;27228;-77
2021/05/31 00:41:52;;;;;;;5.55;3.85;;;;;;;10.86;73.23;98873.55;125786;1104;22747;-77
2021/05/31 00:44:23;;;;;;;4.80;3.85;;;;;;;10.85;73.39;98869.15;125805;1104;22774;-77
2021/05/31 00:47:05;;;;;;;4.27;3.03;;;;;;;10.78;73.31;98869.28;125785;1104;22747;-77
2021/05/31 00:49:37;;;;;;;6.77;3.27;;;;;;;10.76;73.42;98876.84;125836;1097;25877;-77
2021/05/31 00:52:07;;;;;;;4.27;3.07;;;;;;;10.73;73.41;98869.16;125836;1097;27265;-77
2021/05/31 00:54:36;;;;;;;4.00;3.17;;;;;;;10.75;73.69;98871.66;125824;1096;26248;-77
2021/05/31 00:57:04;;;;;;;5.83;3.30;;;;;;;10.72;73.82;98862.05;125793;1104;22778;-77
2021/05/31 00:59:46;;;;;;;4.20;3.30;;;;;;;10.72;73.92;98867.49;125791;1104;22770;-77
2021/05/31 01:02:14;;;;;;;6.10;3.80;;;;;;;10.71;73.91;98865.85;125851;1096;22757;-77
2021/05/31 01:04:42;;;;;;;4.83;3.77;;;;;;;10.70;73.96;98866.91;126133;1101;22820;-77
2021/05/31 01:07:43;;;;;;;4.17;3.37;;;;;;;10.71;74.05;98868.58;125889;1097;26217;-77
2021/05/31 01:10:49;;;;;;;4.90;3.45;;;;;;;10.72;74.05;98870.22;126144;1101;22750;-76
2021/05/31 01:13:24;;;;;;;4.35;3.45;;;;;;;10.71;74.58;98874.02;125710;1096;27334;-77
2021/05/31 01:16:09;;;;;;;6.00;4.10;;;;;;;10.70;74.28;98872.34;125790;1101;22783;-79
2021/05/31 01:18:51;;;;;;;;;;;;;;;10.68;74.39;98863.59;126124;1101;22750;-77
2021/05/31 01:21:22;;;;;;;7.80;4.30;;;;;;;10.65;74.94;98872.22;126052;1101;21462;-76
2021/05/31 01:24:02;;;;;;;5.27;4.10;;;;;;;10.63;74.65;98868.91;126040;1101;22774;-76
2021/05/31 01:26:42;;;;;;;6.87;4.20;;;;;;;10.62;74.95;98868.09;125884;1104;22910;-78
2021/05/31 01:29:25;;;;;;;5.70;3.75;;;;;;;10.63;74.84;98863.47;126020;1101;22728;-78
2021/05/31 01:31:58;;;;;;;6.90;4.15;;;;;;;10.63;74.43;98867.01;125859;1096;27180;-78
2021/05/31 01:34:42;;;;;;;7.35;4.30;;;;;;;10.66;74.53;98870.32;125754;1104;22748;-78
2021/05/31 01:37:26;;;;;;;4.07;3.30;;;;;;;10.62;74.10;98865.37;126147;1101;22775;-78
2021/05/31 01:39:57;;;;;;;5.30;4.20;;;;;;;10.62;74.92;98869.96;126064;1101;22770;-78
2021/05/31 01:42:26;;;;;;;5.30;4.50;;;;;;;10.59;74.67;98868.55;126084;1101;22771;-78
2021/05/31 01:44:54;;;;;;;7.73;4.53;;;;;;;10.63;74.72;98866.19;125821;1096;25827;-78
2021/05/31 01:47:23;;;;;;;6.37;3.97;;;;;;;10.66;74.62;98864.88;125867;1101;22812;-78
2021/05/31 01:49:51;;;;;;;6.75;4.13;;;;;;;10.68;75.14;98860.87;125885;1096;27265;-78
2021/05/31 01:52:22;;;;;;;6.53;4.10;;;;;;;10.70;75.39;98861.45;126060;1096;22747;-78
2021/05/31 01:54:55;;;;;;;6.55;4.10;;;;;;;10.71;75.07;98863.13;126102;1101;22744;-78
2021/05/31 01:57:24;;;;;;;7.57;4.43;;;;;;;10.73;74.87;98865.59;126106;1101;22841;-78
2021/05/31 01:59:52;;;;;;;8.03;4.00;;;;;;;10.75;75.09;98855.31;125786;1101;22768;-78
2021/05/31 02:02:20;;;;;;;4.63;4.17;;;;;;;10.77;75.05;98861.34;126074;1101;22775;-78
2021/05/31 02:04:48;;;;;;;9.05;4.70;;;;;;;10.78;74.64;98850.22;126020;1096;25960;-78
2021/05/31 02:07:15;;;;;;;7.10;4.45;;;;;;;10.80;75.20;98853.53;126034;1096;22758;-78
2021/05/31 02:09:44;;;;;;;8.83;4.50;;;;;;;10.82;74.91;98851.39;126036;1101;22768;-78
2021/05/31 02:12:13;;;;;;;6.03;4.70;;;;;;;10.80;74.58;98856.25;126081;1096;22909;-78
2021/05/31 02:15:08;;;;;;;7.10;4.40;;;;;;;10.82;75.16;98845.94;125883;1102;22842;-78
2021/05/31 02:17:54;;;;;;;4.50;3.85;;;;;;;10.83;75.25;98844.86;125807;1102;22763;-79
2021/05/31 02:20:37;;;;;;;7.27;5.23;;;;;;;10.84;75.36;98848.44;126086;1096;26239;-78
2021/05/31 02:23:08;;;;;;;7.08;4.95;;;;;;;10.85;74.90;98846.53;126117;1101;22738;-78
2021/05/31 02:25:51;;;;;;;9.75;5.10;;;;;;;10.86;75.16;98843.57;125893;1101;22862;-78
2021/05/31 02:28:19;;;;;;;8.75;5.70;;;;;;;10.85;75.57;98844.63;125843;1101;22831;-78
2021/05/31 02:30:47;;;;;;;7.00;4.70;;;;;;;10.80;75.14;98842.63;125787;1102;22800;-78
2021/05/31 02:33:15;;;;;;;6.70;4.60;;;;;;;10.80;75.34;98853.53;126049;1101;22729;-78
2021/05/31 02:35:43;;;;;;;7.95;5.05;;;;;;;10.79;75.00;98846.41;125776;1104;22758;-78
2021/05/31 02:38:24;;;;;;;6.30;4.60;;;;;;;10.71;75.07;98849.50;125905;1101;22761;-78
2021/05/31 02:40:52;;;;;;;6.67;5.00;;;;;;;10.67;75.02;98848.30;125805;1101;22722;-78
2021/05/31 02:43:19;;;;;;;6.90;4.80;;;;;;;10.66;75.45;98848.53;126090;1101;24377;-78
2021/05/31 02:46:01;;;;;;;6.67;4.90;;;;;;;10.69;75.45;98842.63;125868;1101;22746;-78
2021/05/31 02:48:29;;;;;;;6.00;3.73;;;;;;;10.71;75.32;98846.78;126041;1101;22741;-78
2021/05/31 02:50:57;;;;;;;8.65;4.55;;;;;;;10.73;75.52;98847.37;126051;1101;22793;-78
2021/05/31 02:53:26;;;;;;;8.30;5.33;;;;;;;10.74;75.54;98842.74;126061;1101;22761;-78
2021/05/31 02:55:53;;;;;;;8.88;5.05;;;;;;;10.78;75.56;98847.49;126140;1096;22761;-78
2021/05/31 02:58:21;;;;;;;8.65;4.75;;;;;;;10.79;75.62;98849.13;126131;1096;22721;-78
2021/05/31 03:00:49;;;;;;;8.07;5.03;;;;;;;10.81;75.61;98844.27;125885;1096;27147;-78
2021/05/31 03:03:16;;;;;;;6.73;4.67;;;;;;;10.83;75.19;98846.77;125886;1101;22737;-78
2021/05/31 03:05:44;;;;;;;6.53;5.10;;;;;;;10.88;75.17;98846.89;126060;1101;22774;-78
2021/05/31 03:08:25;;;;;;;6.93;5.40;;;;;;;10.92;75.13;98845.33;125852;1096;26217;-78
2021/05/31 03:10:54;;;;;;;8.87;5.23;;;;;;;10.94;75.27;98843.22;126067;1101;22778;-78
2021/05/31 03:13:22;;;;;;;7.37;5.20;;;;;;;10.96;75.17;98843.81;126147;1101;24386;-78
2021/05/31 03:16:03;;;;;;;8.03;5.73;;;;;;;10.99;75.07;98847.94;125857;1102;22778;-78
2021/05/31 03:18:31;;;;;;;6.20;4.40;;;;;;;11.04;75.24;98839.06;125803;1101;22737;-78
2021/05/31 03:20:59;;;;;;;6.75;4.65;;;;;;;11.08;75.06;98849.23;125834;1101;22812;-78
2021/05/31 03:23:26;;;;;;;7.80;4.65;;;;;;;11.13;75.15;98845.80;126081;1096;25938;-78
2021/05/31 03:25:54;;;;;;;8.90;5.30;;;;;;;11.16;75.25;98843.42;126048;1101;22746;-78
2021/05/31 03:28:21;;;;;;;7.30;5.30;;;;;;;11.20;74.94;98850.05;125842;1102;22743;-78
2021/05/31 03:30:49;;;;;;;10.55;5.40;;;;;;;11.21;74.79;98842.72;125848;1104;22790;-78
2021/05/31 03:33:18;;;;;;;6.70;4.63;;;;;;;11.24;75.23;98850.39;126209;1101;22895;-78
2021/05/31 03:35:46;;;;;;;5.15;4.00;;;;;;;11.27;75.15;98840.92;125903;1104;23002;-78
2021/05/31 03:38:13;;;;;;;6.50;5.60;;;;;;;11.28;75.13;98845.29;125954;1096;27303;-78
2021/05/31 03:40:41;;;;;;;9.95;6.95;;;;;;;11.30;75.43;98845.91;125910;1097;22839;-78
2021/05/31 03:43:08;;;;;;;7.43;6.37;;;;;;;11.29;75.42;98841.51;125797;1097;22839;-78
2021/05/31 03:45:36;;;;;;;9.80;6.00;;;;;;;11.29;75.25;98841.51;125804;1104;22770;-78
2021/05/31 03:48:05;;;;;;;7.40;6.10;;;;;;;11.29;75.38;98849.69;125946;1104;24453;-79
2021/05/31 03:50:46;;;;;;;6.85;5.40;;;;;;;11.29;74.52;98844.23;125956;1104;24440;-78
2021/05/31 03:53:14;;;;;;;6.65;5.00;;;;;;;11.30;75.02;98837.73;125866;1097;22848;-78
2021/05/31 03:55:42;;;;;;;10.05;5.80;;;;;;;11.32;74.45;98846.48;125789;1104;22929;-78
2021/05/31 03:58:10;;;;;;;7.15;5.75;;;;;;;11.35;74.43;98840.53;125861;1105;22781;-78
2021/05/31 04:00:38;;;;;;;6.90;4.90;;;;;;;11.39;74.31;98841.73;125847;1097;26257;-78
2021/05/31 04:03:05;;;;;;;7.70;5.40;;;;;;;11.38;74.11;98838.18;125830;1104;22841;-78
2021/05/31 04:05:34;;;;;;;8.10;4.90;;;;;;;11.39;73.37;98841.73;125804;1104;22753;-78
2021/05/31 04:13:34;;;;;;;6.50;4.80;;;;;;;11.32;73.73;98838.31;125895;1104;22761;-78
2021/05/31 04:16:02;;;;;;;5.85;4.50;;;;;;;11.31;73.48;98848.36;125832;1104;22812;-78
2021/05/31 04:18:43;;;;;;;8.60;5.50;;;;;;;11.29;74.11;98838.78;125868;1104;22822;-78
2021/05/31 04:21:11;;;;;;;8.60;5.65;;;;;;;11.28;73.97;98843.41;125865;1104;22824;-78
2021/05/31 04:23:53;;;;;;;8.10;5.37;;;;;;;11.26;74.24;98841.98;125909;1097;26197;-78
2021/05/31 04:26:21;;;;;;;9.80;5.90;;;;;;;11.27;74.46;98840.92;125853;1104;22766;-78
2021/05/31 04:29:07;;;;;;;9.75;5.20;;;;;;;11.27;74.65;98839.02;125847;1104;22754;-78
2021/05/31 04:31:36;;;;;;;7.40;5.67;;;;;;;11.27;74.38;98839.02;125814;1097;27284;-78
2021/05/31 04:34:06;;;;;;;10.73;5.93;;;;;;;11.29;74.42;98836.05;126088;1104;22900;-78
2021/05/31 04:36:48;;;;;;;9.35;5.95;;;;;;;11.30;74.65;98841.27;125956;1104;22809;-78
2021/05/31 04:39:16;;;;;;;11.15;5.75;;;;;;;11.34;74.62;98841.63;125916;1104;22753;-78
2021/05/31 04:41:43;;;;;;;8.60;6.30;;;;;;;11.33;74.77;98843.53;125943;1104;22803;-78
2021/05/31 04:44:11;;;;;;;8.50;5.80;;;;;;;11.35;74.76;98843.26;125939;1104;22744;-78
2021/05/31 04:46:39;;;;;;;9.95;6.05;;;;;;;11.36;74.53;98836.75;125988;1096;22740;-78
2021/05/31 04:49:06;;;;;;;5.80;4.77;;;;;;;11.42;74.58;98833.08;126042;1104;22741;-79
2021/05/31 04:51:35;;;;;;;13.25;6.20;;;;;;;11.45;74.11;98839.93;125890;1097;27176;-79
2021/05/31 04:54:02;;;;;;;9.90;5.25;;;;;;;11.47;74.25;98838.61;125896;1104;22778;-79
2021/05/31 04:56:44;;;;;;;11.35;5.35;;;;;;;11.51;73.52;98836.22;125967;1104;22748;-78
2021/05/31 04:59:13;;;;;;;7.70;4.80;;;;;;;11.54;73.04;98844.78;125875;1097;27116;-79
2021/05/31 05:01:41;;;;;;;;;;;;;;;11.57;72.93;98844.27;126010;1097;27235;-79
2021/05/31 05:04:08;;;;;;;9.63;5.50;;;;;;;11.63;72.26;98838.92;125963;1097;25785;-79
2021/05/31 05:06:36;;;;;;;8.30;4.80;;;;;;;11.64;71.57;98840.59;125826;1104;22774;-79
2021/05/31 05:09:04;;;;;;;6.85;5.00;;;;;;;11.66;71.61;98841.17;125793;1104;22825;-79
2021/05/31 05:11:31;;;;;;;7.20;4.93;;;;;;;11.68;71.94;98836.30;125784;1104;22744;-79
2021/05/31 05:14:00;;;;;;;5.30;3.95;;;;;;;11.71;71.49;98833.91;125814;1104;22753;-79
2021/05/31 05:16:29;;;;;;;7.87;4.33;;;;;;;11.75;71.48;98834.25;125848;1104;22761;-79
2021/05/31 05:18:56;;;;;;;6.47;4.73;;;;;;;11.76;71.85;98839.47;125783;1104;22774;-79
2021/05/31 05:21:24;;;;;;;7.70;5.00;;;;;;;11.80;71.11;98836.27;125743;1104;24045;-78
2021/05/31 05:23:52;;;;;;;9.00;5.00;;;;;;;11.83;71.39;98846.67;125825;1104;24383;-78
2021/05/31 05:26:33;;;;;;;8.00;4.90;;;;;;;11.86;71.54;98838.00;125783;1104;22754;-79
2021/05/31 05:29:01;;;;;;;7.70;4.77;;;;;;;11.88;70.70;98839.43;125806;1104;22769;-79
2021/05/31 05:31:28;;;;;;;8.20;4.40;;;;;;;11.93;71.06;98836.84;125793;1104;22808;-79
2021/05/31 05:33:58;;;;;;;5.23;4.40;;;;;;;11.98;70.34;98841.54;125763;1104;22732;-79
2021/05/31 05:42:20;;;;;;;7.75;4.00;;;;;;;12.15;70.66;98847.05;125786;1104;22799;-79
2021/05/31 05:47:47;;;;;;;8.00;4.30;;;;;;;12.27;70.36;98839.62;125855;1097;25895;-78
2021/05/31 05:50:29;;;;;;;6.20;3.85;;;;;;;12.32;70.27;98839.70;126023;1104;22826;-79
2021/05/31 05:52:56;;;;;;;5.65;4.30;;;;;;;12.39;70.16;98836.79;126022;1105;22784;-79
2021/05/31 05:55:24;;;;;;;7.10;4.35;;;;;;;12.45;69.36;98841.28;125888;1104;22846;-79
2021/05/31 05:57:52;;;;;;;9.05;5.05;;;;;;;12.50;69.26;98840.52;126045;1104;22786;-78
2021/05/31 06:00:23;;;;;;;9.90;4.15;;;;;;;12.59;68.59;98838.20;125782;1097;27135;-79
2021/05/31 06:02:52;;;;;;;5.20;3.10;;;;;;;12.64;66.96;98836.41;125817;1104;22778;-79
2021/05/31 06:05:19;;;;;;;7.40;4.23;;;;;;;12.65;67.64;98838.04;125814;1104;22771;-79
2021/05/31 06:07:47;;;;;;;5.45;3.70;;;;;;;12.69;66.53;98844.66;125761;1104;22797;-79
2021/05/31 06:10:16;;;;;;;5.23;3.77;;;;;;;12.73;66.69;98842.28;125776;1104;22812;-79
2021/05/31 06:12:43;;;;;;;5.93;3.13;;;;;;;12.76;66.06;98839.02;125864;1104;22832;-79
2021/05/31 06:15:13;;;;;;;7.20;3.70;;;;;;;12.78;65.06;98841.52;125814;1100;27135;-79
2021/05/31 06:17:41;;;;;;;4.13;2.53;;;;;;;12.81;64.42;98838.28;125856;1104;22774;-79
2021/05/31 06:20:09;;;;;;;4.20;3.80;;;;;;;12.86;65.23;98832.90;125788;1104;22753;-79
2021/05/31 06:22:51;;;;;;;4.20;3.00;;;;;;;12.94;64.27;98837.10;125786;1104;22926;-78
2021/05/31 06:25:20;;;;;;;4.95;3.10;;;;;;;12.99;64.12;98831.71;125774;1097;27454;-78
2021/05/31 06:27:48;;;;;;;3.38;3.08;;;;;;;13.05;63.97;98830.69;125756;1097;22952;-78
2021/05/31 06:30:16;;;;;;;4.50;2.90;;;;;;;13.13;64.12;98824.80;125867;1104;24513;-78
2021/05/31 06:32:43;;;;;;;6.00;3.90;;;;;;;13.21;63.46;98820.78;125842;1097;25880;-78
2021/05/31 06:35:11;;;;;;;4.85;2.70;;;;;;;13.28;62.60;98825.01;125854;1104;22781;-78
2021/05/31 06:37:39;;;;;;;4.95;2.80;;;;;;;13.37;63.27;98816.38;125769;1097;26309;-78
2021/05/31 06:40:12;;;;;;;3.00;2.20;;;;;;;13.46;59.34;98823.08;125784;1105;22774;-78
2021/05/31 06:42:45;;;;;;;3.85;2.40;;;;;;;13.51;60.46;98827.77;125801;1105;22756;-78
2021/05/31 06:45:25;;;;;;;7.05;2.80;;;;;;;13.58;59.36;98817.45;125857;1104;22774;-78
2021/05/31 06:48:00;;;;;;;4.40;2.23;;;;;;;13.66;59.85;98817.01;125788;1097;22757;-78
2021/05/31 06:50:31;;;;;;;3.40;2.30;;;;;;;13.74;59.28;98821.19;125776;1104;22757;-78
2021/05/31 06:53:00;;;;;;;2.23;2.03;;;;;;;13.82;55.97;98824.30;125816;1097;22784;-78
2021/05/31 06:55:33;;;;;;;3.73;2.28;;;;;;;13.94;57.02;98821.42;125839;1097;27174;-78
2021/05/31 06:58:01;;;;;;;2.65;2.10;;;;;;;14.04;55.91;98813.31;125888;1105;22777;-78
2021/05/31 07:00:29;;;;;;;2.13;1.80;;;;;;;14.15;56.50;98821.64;125829;1104;22817;-78
2021/05/31 07:02:57;;;;;;;5.55;2.25;;;;;;;14.27;56.03;98813.23;125746;1097;26220;-78
2021/05/31 07:05:25;;;;;;;2.20;1.80;;;;;;;14.40;54.15;98813.63;125809;1104;23492;-78
2021/05/31 07:07:53;;;;;;;6.80;3.00;;;;;;;14.51;54.76;98816.45;125950;1097;25880;-78
2021/05/31 07:10:27;;;;;;;2.87;2.50;;;;;;;14.63;55.43;98817.13;125806;1104;22822;-78
2021/05/31 07:12:56;;;;;;;4.55;2.00;;;;;;;14.78;54.91;98819.99;125828;1097;26250;-78
2021/05/31 07:15:25;;;;;;;3.65;2.20;;;;;;;14.87;53.72;98817.55;125735;1097;22821;-78
2021/05/31 07:17:53;;;;;;;2.53;2.33;;;;;;;14.93;52.94;98819.25;125797;1104;22760;-78
2021/05/31 07:20:21;;;;;;;5.33;2.33;;;;;;;15.02;53.67;98805.88;125834;1097;25996;-78
2021/05/31 07:22:51;;;;;;;2.40;1.80;;;;;;;15.14;53.37;98805.67;125823;1097;27167;-78
2021/05/31 07:25:19;;;;;;;2.40;1.90;;;;;;;15.23;52.11;98801.32;125807;1104;22809;-78
2021/05/31 07:27:48;;;;;;;4.20;2.13;;;;;;;15.33;51.01;98811.50;125829;1104;22781;-78
2021/05/31 07:30:18;;;;;;;6.10;1.90;;;;;;;15.40;50.76;98814.01;125837;1097;27138;-78
2021/05/31 07:33:01;;;;;;;1.80;1.70;;;;;;;15.43;50.15;98808.81;125767;1104;22781;-76
2021/05/31 07:35:43;;;;;;;3.97;2.07;;;;;;;15.50;50.20;98805.83;125796;1097;26273;-76
2021/05/31 07:38:10;;;;;;;3.43;1.73;;;;;;;15.57;49.66;98806.39;125758;1105;22853;-76
2021/05/31 07:40:38;;;;;;;3.88;1.53;;;;;;;15.66;49.34;98809.45;125894;1104;22788;-76
2021/05/31 07:43:05;;;;;;;4.67;2.00;;;;;;;15.69;48.78;98806.98;125797;1097;22855;-78
2021/05/31 07:45:33;;;;;;;4.37;2.00;;;;;;;15.77;49.65;98811.14;125858;1104;22848;-78
2021/05/31 07:48:00;;;;;;;4.17;2.17;;;;;;;15.84;49.50;98805.41;125876;1097;27170;-78
2021/05/31 07:50:28;;;;;;;4.45;2.15;;;;;;;15.84;49.48;98797.98;125851;1104;24596;-78
2021/05/31 07:53:10;;;;;;;2.70;1.93;;;;;;;15.89;48.37;98805.42;125751;1104;22753;-78
2021/05/31 07:55:38;;;;;;;2.80;2.33;;;;;;;15.78;47.92;98806.50;125786;1097;27164;-78
2021/05/31 07:58:06;;;;;;;4.58;2.33;;;;;;;15.57;48.75;98809.14;125763;1104;22852;-78
2021/05/31 08:00:33;;;;;;;7.33;2.37;;;;;;;15.49;50.45;98788.53;125850;1097;27164;-78
2021/05/31 08:03:01;;;;;;;3.73;2.20;;;;;;;15.29;49.28;98797.48;125844;1105;22844;-78
2021/05/31 08:05:30;;;;;;;2.90;1.75;;;;;;;15.13;49.77;98804.00;125847;1097;25880;-78
2021/05/31 08:07:57;;;;;;;3.18;2.35;;;;;;;15.13;51.40;98795.78;125907;1104;24161;-78
2021/05/31 08:10:25;;;;;;;3.03;2.40;;;;;;;15.06;51.18;98792.45;125837;1104;22774;-78
2021/05/31 08:13:06;;;;;;;4.25;2.60;;;;;;;14.97;49.84;98794.87;125863;1104;22822;-76
2021/05/31 08:15:34;;;;;;;3.47;2.40;;;;;;;15.10;51.64;98793.56;125855;1105;24422;-77
2021/05/31 08:18:01;;;;;;;6.18;2.30;;;;;;;15.31;51.10;98795.30;125836;1104;22780;-78
2021/05/31 08:20:29;;;;;;;2.75;2.05;;;;;;;15.64;51.43;98792.42;125793;1104;22735;-78
2021/05/31 08:23:10;;;;;;;2.48;2.00;;;;;;;15.75;51.48;98792.19;125761;1097;26229;-78
2021/05/31 08:25:40;;;;;;;4.10;2.03;;;;;;;15.75;49.53;98794.13;125858;1097;27696;-78
2021/05/31 08:28:07;;;;;;;;;;;;;;;15.72;49.50;98784.48;125872;1097;26258;-78
2021/05/31 08:30:35;;;;;;;2.77;2.03;;;;;;;15.71;49.82;98784.75;125789;1104;21467;-78
2021/05/31 08:33:05;;;;;;;4.30;2.10;;;;;;;15.63;50.04;98785.27;125848;1097;27390;-78
2021/05/31 08:35:47;;;;;;;4.83;2.00;;;;;;;15.63;50.08;98788.83;125777;1105;23728;-78
2021/05/31 08:38:15;;;;;;;5.70;2.00;;;;;;;15.91;50.84;98784.81;125884;1104;22753;-78
2021/05/31 08:40:43;;;;;;;2.73;1.60;;;;;;;16.20;47.78;98791.72;125852;1105;22757;-78
2021/05/31 08:43:11;;;;;;;3.15;1.88;;;;;;;16.23;47.07;98789.24;125757;1104;23202;-78
2021/05/31 08:45:54;;;;;;;2.73;2.23;;;;;;;16.28;48.07;98777.44;125783;1104;22794;-78
2021/05/31 08:48:22;;;;;;;;;;;;;;;16.51;47.13;98778.81;125817;1097;26254;-78
2021/05/31 08:51:03;;;;;;;4.27;2.10;;;;;;;16.88;48.14;98767.50;125789;1104;21494;-78
2021/05/31 08:53:31;;;;;;;2.93;2.08;;;;;;;16.90;45.22;98783.73;125819;1104;22756;-78
2021/05/31 08:55:59;;;;;;;2.38;1.70;;;;;;;16.71;44.46;98775.20;125766;1094;27163;-78
2021/05/31 08:58:35;;;;;;;2.35;1.53;;;;;;;16.76;44.03;98775.20;125784;1104;22842;-78
2021/05/31 09:01:04;;;;;;;2.53;1.60;;;;;;;16.93;45.90;98774.08;125760;1104;22778;-78
2021/05/31 09:03:32;;;;;;;4.73;1.83;;;;;;;17.24;44.31;98766.56;125847;1104;22822;-78
2021/05/31 09:06:09;;;;;;;6.50;1.60;;;;;;;17.57;41.70;98761.47;125865;1097;22783;-78
2021/05/31 09:08:44;;;;;;;6.50;1.88;;;;;;;17.78;43.31;98762.18;125816;1105;22781;-78
2021/05/31 09:11:18;;;;;;;4.55;1.93;;;;;;;18.08;43.34;98760.33;125764;1104;22780;-78
2021/05/31 09:13:48;;;;;;;3.33;2.10;;;;;;;18.36;43.96;98765.09;125782;1097;26257;-78
2021/05/31 09:16:17;;;;;;;2.88;1.83;;;;;;;18.28;40.72;98764.89;125873;1105;22894;-76
2021/05/31 09:18:49;;;;;;;3.55;2.10;;;;;;;17.99;42.63;98771.17;125791;1104;22770;-78
2021/05/31 09:21:24;;;;;;;3.43;1.90;;;;;;;17.84;43.67;98775.61;125797;1104;22822;-78
2021/05/31 09:23:55;;;;;;;5.60;2.40;;;;;;;17.75;43.38;98768.25;125838;1097;26269;-78
2021/05/31 09:26:27;;;;;;;4.03;1.70;;;;;;;17.64;43.11;98767.48;125828;1104;22832;-78
2021/05/31 09:29:02;;;;;;;3.75;1.95;;;;;;;17.45;43.75;98770.05;125765;1104;22784;-78
2021/05/31 09:31:33;;;;;;;3.08;2.10;;;;;;;17.33;43.77;98773.13;125769;1105;22879;-78
2021/05/31 09:34:02;;;;;;;2.13;1.70;;;;;;;17.27;44.27;98764.06;125786;1104;22878;-78
2021/05/31 09:36:31;;;;;;;2.98;2.28;;;;;;;17.29;44.15;98755.53;126034;1097;27167;-78
2021/05/31 09:39:04;;;;;;;4.00;2.45;;;;;;;17.54;44.46;98754.58;126116;1097;22777;-76
2021/05/31 09:41:34;;;;;;;2.73;1.63;;;;;;;17.84;42.15;98752.76;125850;1104;22747;-78
2021/05/31 09:44:07;;;;;;;4.68;1.70;;;;;;;17.79;43.27;98755.55;125940;1097;26271;-76
2021/05/31 09:46:44;;;;;;;9.25;1.90;;;;;;;17.98;43.35;98751.03;125814;1104;22735;-76
2021/05/31 09:49:28;;;;;;;3.90;1.83;;;;;;;18.19;40.89;98753.66;125763;1104;22923;-76
2021/05/31 09:52:01;;;;;;;4.00;1.65;;;;;;;18.38;42.86;98749.08;126047;1097;26047;-77
2021/05/31 09:54:49;;;;;;;4.75;2.30;;;;;;;18.54;41.88;98746.19;125892;1104;24575;-77
2021/05/31 09:57:28;;;;;;;2.60;1.75;;;;;;;18.44;41.78;98751.80;125888;1105;22746;-77
2021/05/31 10:00:07;;;;;;;47.35;5.08;;;;;;;18.65;42.50;98753.23;125829;1105;22832;-77
2021/05/31 10:03:23;;;;;;;4.35;1.65;;;;;;;18.93;40.52;98748.84;125886;1097;24389;-77
2021/05/31 10:06:18;;;;;;;8.63;1.55;;;;;;;19.10;38.62;98747.54;125791;1104;22770;-77
2021/05/31 10:09:00;;;;;;;8.28;1.68;;;;;;;19.13;38.74;98753.30;125837;1104;22959;-77
2021/05/31 10:11:28;;;;;;;1.97;1.23;;;;;;;19.20;38.50;98761.23;125844;1097;26252;-77
2021/05/31 10:13:57;;;;;;;3.58;1.88;;;;;;;19.27;38.16;98750.65;126193;1097;26311;-77
2021/05/31 10:16:25;;;;;;;6.83;2.15;;;;;;;19.45;36.64;98737.17;126053;1104;22768;-77
2021/05/31 10:18:53;;;;;;;6.58;1.23;;;;;;;19.72;36.33;98730.98;126081;1104;22735;-77
2021/05/31 10:21:22;;;;;;;4.00;2.10;;;;;;;19.98;35.92;98738.94;126053;1104;22735;-77
2021/05/31 10:24:04;;;;;;;2.33;1.40;;;;;;;19.89;35.60;98728.55;125935;1097;26360;-77
2021/05/31 10:26:36;;;;;;;1.85;1.38;;;;;;;19.56;35.09;98724.04;125992;1105;24540;-77
2021/05/31 10:29:05;;;;;;;1.73;1.35;;;;;;;19.20;37.44;98728.09;125844;1104;22822;-77
2021/05/31 10:31:46;;;;;;;5.88;1.55;;;;;;;18.77;37.16;98734.35;125828;1104;22757;-77
2021/05/31 10:34:28;;;;;;;1.65;1.13;;;;;;;18.39;38.81;98739.67;125794;1097;26458;-77
2021/05/31 10:36:55;;;;;;;39.30;3.00;;;;;;;18.32;38.83;98741.13;125981;1104;23327;-77
2021/05/31 10:39:28;;;;;;;6.00;1.58;;;;;;;18.17;39.46;98739.34;125889;1097;27228;-77
2021/05/31 10:42:09;;;;;;;4.13;1.63;;;;;;;17.71;39.21;98739.64;125891;1104;22758;-77
2021/05/31 10:44:37;;;;;;;3.20;1.63;;;;;;;17.36;39.87;98731.27;126153;1104;22761;-77
2021/05/31 10:47:07;;;;;;;2.80;1.73;;;;;;;17.16;39.60;98734.14;125937;1098;26002;-77
2021/05/31 10:49:35;;;;;;;1.88;1.10;;;;;;;17.07;41.19;98733.89;126182;1104;22789;-77
2021/05/31 10:52:03;;;;;;;2.80;1.55;;;;;;;17.16;39.48;98729.45;125928;1097;22813;-77
2021/05/31 10:54:36;;;;;;;4.05;1.50;;;;;;;17.54;41.14;98731.73;126064;1105;22819;-77
2021/05/31 10:57:09;;;;;;;6.33;1.83;;;;;;;17.97;38.34;98721.01;126091;1104;22812;-77
2021/05/31 10:59:52;;;;;;;13.65;2.75;;;;;;;18.32;35.96;98717.13;126190;1104;22897;-77
2021/05/31 11:02:29;;;;;;;1.98;1.10;;;;;;;18.78;37.49;98710.34;126098;1097;22844;-77
2021/05/31 11:05:11;;;;;;;2.80;1.10;;;;;;;19.00;35.81;98711.77;126036;1104;22706;-77
2021/05/31 11:07:39;;;;;;;3.93;1.30;;;;;;;18.79;37.46;98710.05;126071;1096;25861;-77
2021/05/31 11:10:16;;;;;;;3.73;1.17;;;;;;;18.38;36.19;98718.75;125971;1104;22860;-77
2021/05/31 11:12:45;;;;;;;4.38;1.30;;;;;;;18.35;36.73;98715.75;126131;1097;25861;-77
2021/05/31 11:15:13;;;;;;;;;;;;;;;18.47;36.17;98713.42;126121;1097;26248;-77
2021/05/31 11:17:52;;;;;;;3.60;1.20;;;;;;;18.50;37.35;98712.85;126192;1104;21459;-78
2021/05/31 11:20:33;;;;;;;7.60;1.38;;;;;;;18.46;35.42;98711.77;126105;1104;24578;-77
2021/05/31 11:23:05;;;;;;;6.23;1.20;;;;;;;18.55;37.89;98711.95;126004;1104;23508;-77
2021/05/31 11:25:33;;;;;;;5.65;1.20;;;;;;;18.70;38.98;98719.27;126039;1097;27195;-78
2021/05/31 11:28:03;;;;;;;2.83;0.90;;;;;;;18.81;37.14;98708.95;126207;1104;22725;-77
2021/05/31 11:30:34;;;;;;;25.05;2.25;;;;;;;18.97;35.93;98702.97;125967;1104;22762;-77
2021/05/31 11:33:05;;;;;;;13.40;1.38;;;;;;;19.21;36.59;98702.14;126040;1097;27258;-77
2021/05/31 11:35:35;;;;;;;7.58;1.03;;;;;;;19.39;34.78;98700.52;125921;1104;24148;-77
2021/05/31 11:38:03;;;;;;;3.93;0.90;;;;;;;19.48;34.81;98704.25;125971;1104;23176;-78
2021/05/31 11:40:34;;;;;;;1.87;0.67;;;;;;;19.45;32.67;98695.74;125953;1104;22748;-77
2021/05/31 11:43:04;;;;;;;2.25;0.90;;;;;;;19.52;35.14;98699.77;126177;1104;23636;-77
2021/05/31 11:45:36;;;;;;;5.15;1.30;;;;;;;19.68;31.77;98696.79;126062;1104;22781;-77
2021/05/31 11:48:09;;;;;;;17.50;1.60;;;;;;;19.65;32.93;98692.66;126004;1104;22737;-78
2021/05/31 11:50:40;;;;;;;2.28;0.95;;;;;;;19.81;34.45;98698.81;126071;1104;22774;-78
2021/05/31 11:53:14;;;;;;;2.47;1.10;;;;;;;20.04;30.66;98699.02;125939;1104;22741;-77
2021/05/31 11:55:42;;;;;;;4.60;1.00;;;;;;;20.31;32.33;98687.23;125949;1097;26288;-77
2021/05/31 11:58:11;;;;;;;1.35;0.83;;;;;;;20.44;32.17;98685.62;125946;1104;22738;-78
2021/05/31 12:00:43;;;;;;;4.23;1.00;;;;;;;20.60;31.92;98677.85;126068;1104;22761;-77
2021/05/31 12:03:21;;;;;;;1.18;0.85;;;;;;;20.74;32.61;98672.37;126073;1104;24517;-77